createdAt,value
2022-11-29T00:01:05.854Z,15.26
2022-11-29T00:03:54.965Z,15.27
2022-11-29T00:06:37.816Z,15.27
2022-11-29T00:09:27.861Z,15.24
2022-11-29T00:12:19.862Z,15.40
2022-11-29T00:15:02.210Z,15.39
2022-11-29T00:17:52.070Z,15.29
2022-11-29T00:20:34.217Z,15.28
2022-11-29T00:23:22.947Z,15.42
2022-11-29T00:26:15.215Z,15.48
2022-11-29T00:29:04.050Z,15.46
2022-11-29T00:31:47.667Z,15.32
2022-11-29T00:34:36.986Z,15.23
2022-11-29T00:37:19.224Z,15.21
2022-11-29T00:40:07.939Z,15.17
2022-11-29T00:42:50.282Z,15.22
2022-11-29T00:45:39.073Z,15.26
2022-11-29T00:48:21.260Z,15.10
2022-11-29T00:51:11.010Z,15.06
2022-11-29T00:53:53.268Z,15.23
2022-11-29T00:56:41.954Z,15.27
2022-11-29T00:59:24.363Z,15.34
2022-11-29T01:02:13.038Z,15.32
2022-11-29T01:05:07.851Z,15.21
2022-11-29T01:07:58.081Z,15.15
2022-11-29T01:10:40.279Z,15.20
2022-11-29T01:13:29.469Z,15.22
2022-11-29T01:16:12.268Z,15.19
2022-11-29T01:19:01.040Z,15.18
2022-11-29T01:21:43.262Z,15.10
2022-11-29T01:24:32.078Z,15.08
2022-11-29T01:27:14.220Z,15.12
2022-11-29T01:30:03.046Z,15.15
2022-11-29T01:32:46.245Z,15.21
2022-11-29T01:35:35.040Z,15.15
2022-11-29T01:38:17.286Z,15.08
2022-11-29T01:41:14.985Z,15.07
2022-11-29T01:44:24.530Z,15.00
2022-11-29T01:47:13.982Z,14.91
2022-11-29T01:49:58.320Z,14.82
2022-11-29T01:52:46.970Z,14.80
2022-11-29T01:55:29.230Z,14.81
2022-11-29T01:58:17.934Z,14.81
2022-11-29T02:01:00.218Z,14.66
2022-11-29T02:03:55.929Z,14.65
2022-11-29T02:06:45.878Z,14.68
2022-11-29T02:09:36.922Z,14.86
2022-11-29T02:13:13.973Z,14.92
2022-11-29T02:16:17.294Z,14.79
2022-11-29T02:19:19.893Z,15.03
2022-11-29T02:22:26.862Z,15.11
2022-11-29T02:25:42.292Z,15.12
2022-11-29T02:28:37.964Z,15.20
2022-11-29T02:31:35.225Z,15.40
2022-11-29T02:34:54.979Z,15.45
2022-11-29T02:37:58.210Z,15.58
2022-11-29T02:41:05.031Z,15.72
2022-11-29T02:44:30.203Z,15.87
2022-11-29T02:47:54.910Z,15.83
2022-11-29T02:51:18.260Z,16.02
2022-11-29T02:54:15.971Z,16.06
2022-11-29T02:57:14.882Z,16.21
2022-11-29T03:00:18.908Z,16.25
2022-11-29T03:03:48.819Z,16.42
2022-11-29T03:07:05.020Z,16.45
2022-11-29T03:10:04.282Z,16.68
2022-11-29T03:12:56.867Z,16.85
2022-11-29T03:15:47.863Z,16.97
2022-11-29T03:19:00.336Z,17.22
2022-11-29T03:21:55.858Z,17.48
2022-11-29T03:25:09.563Z,17.84
2022-11-29T03:28:02.958Z,18.32
2022-11-29T03:31:04.859Z,18.75
2022-11-29T03:34:08.929Z,19.09
2022-11-29T03:37:15.015Z,19.31
2022-11-29T03:40:03.599Z,19.56
2022-11-29T03:43:19.958Z,19.86
2022-11-29T03:46:31.018Z,20.27
2022-11-29T03:49:29.858Z,20.52
2022-11-29T03:52:30.233Z,20.73
2022-11-29T03:55:47.798Z,20.97
2022-11-29T03:59:07.206Z,21.29
2022-11-29T04:02:35.994Z,21.62
2022-11-29T04:05:43.831Z,21.73
2022-11-29T04:08:57.839Z,21.70
2022-11-29T04:12:22.986Z,22.24
2022-11-29T04:15:48.069Z,22.42
2022-11-29T04:18:45.199Z,22.37
2022-11-29T04:22:10.247Z,22.58
2022-11-29T04:25:25.229Z,22.50
2022-11-29T04:28:51.968Z,22.71
2022-11-29T04:32:24.337Z,22.42
2022-11-29T04:35:27.823Z,22.70
2022-11-29T04:38:47.361Z,22.80
2022-11-29T04:41:54.888Z,23.06
2022-11-29T04:45:08.359Z,22.91
2022-11-29T04:47:59.889Z,22.90
2022-11-29T04:51:15.910Z,22.88
2022-11-29T04:54:06.924Z,22.98
2022-11-29T04:57:15.255Z,22.71
2022-11-29T05:00:09.942Z,23.03
2022-11-29T05:03:12.574Z,23.14
2022-11-29T05:06:18.955Z,23.19
2022-11-29T05:09:36.242Z,23.55
2022-11-29T05:12:39.865Z,23.70
2022-11-29T05:15:59.242Z,23.93
2022-11-29T05:19:21.942Z,23.42
2022-11-29T05:22:37.391Z,23.07
2022-11-29T05:25:40.219Z,23.74
2022-11-29T05:28:40.921Z,24.05
2022-11-29T05:31:37.986Z,23.89
2022-11-29T05:34:20.369Z,23.81
2022-11-29T05:37:35.894Z,23.30
2022-11-29T05:40:37.324Z,24.18
2022-11-29T05:43:40.863Z,23.98
2022-11-29T05:46:44.213Z,24.46
2022-11-29T05:49:42.931Z,23.98
2022-11-29T05:52:38.866Z,24.54
2022-11-29T05:55:48.920Z,24.38
2022-11-29T05:58:54.227Z,24.78
2022-11-29T06:01:47.947Z,24.27
2022-11-29T06:04:47.174Z,24.56
2022-11-29T06:07:45.967Z,24.41
2022-11-29T06:10:40.852Z,24.55
2022-11-29T06:14:02.063Z,25.02
2022-11-29T06:16:58.937Z,24.80
2022-11-29T06:19:52.887Z,24.32
2022-11-29T06:23:03.138Z,24.79
2022-11-29T06:26:11.926Z,24.87
2022-11-29T06:29:03.233Z,24.87
2022-11-29T06:32:00.999Z,24.85
2022-11-29T06:35:15.265Z,24.98
2022-11-29T06:38:05.900Z,24.97
2022-11-29T06:40:48.169Z,24.97
2022-11-29T06:43:36.936Z,24.96
2022-11-29T06:46:34.268Z,24.97
2022-11-29T06:49:35.907Z,25.03
2022-11-29T06:52:41.227Z,24.89
2022-11-29T06:55:35.965Z,25.11
2022-11-29T06:58:21.333Z,25.01
2022-11-29T07:01:50.962Z,24.87
2022-11-29T07:04:48.580Z,25.00
2022-11-29T07:07:38.930Z,24.94
2022-11-29T07:10:32.894Z,24.89
2022-11-29T07:13:15.607Z,24.91
2022-11-29T07:16:17.023Z,25.03
2022-11-29T07:19:07.357Z,25.09
2022-11-29T07:22:23.846Z,24.99
2022-11-29T07:25:11.781Z,24.90
2022-11-29T07:28:11.953Z,24.85
2022-11-29T07:31:09.513Z,24.96
2022-11-29T07:34:23.990Z,24.87
2022-11-29T07:37:35.219Z,24.80
2022-11-29T07:40:37.434Z,24.92
2022-11-29T07:43:31.842Z,24.77
2022-11-29T07:46:20.952Z,24.72
2022-11-29T07:49:03.058Z,24.63
2022-11-29T07:51:51.910Z,24.65
2022-11-29T07:54:34.269Z,24.85
2022-11-29T07:57:22.907Z,24.86
2022-11-29T08:00:07.206Z,24.82
2022-11-29T08:02:56.920Z,24.80
2022-11-29T08:05:47.147Z,24.91
2022-11-29T08:08:28.926Z,24.87
2022-11-29T08:11:20.159Z,24.78
2022-11-29T08:14:09.873Z,24.74
2022-11-29T08:16:58.779Z,24.78
2022-11-29T08:19:41.162Z,24.77
2022-11-29T08:22:29.813Z,24.85
2022-11-29T08:25:14.192Z,24.91
2022-11-29T08:28:02.780Z,24.96
2022-11-29T08:30:52.854Z,24.96
2022-11-29T08:33:39.522Z,25.13
2022-11-29T08:36:31.916Z,25.06
2022-11-29T08:39:20.798Z,24.99
2022-11-29T08:42:10.000Z,25.11
2022-11-29T08:44:52.088Z,25.06
2022-11-29T08:47:43.870Z,25.05
2022-11-29T08:50:32.180Z,25.03
2022-11-29T08:53:31.789Z,25.04
2022-11-29T08:57:16.636Z,25.18
2022-11-29T08:59:38.796Z,25.16
2022-11-29T09:02:27.812Z,24.95
2022-11-29T09:05:24.737Z,25.16
2022-11-29T09:08:13.840Z,25.23
2022-11-29T09:10:56.159Z,25.23
2022-11-29T09:13:44.963Z,25.15
2022-11-29T09:16:30.225Z,25.09
2022-11-29T09:19:21.821Z,25.04
2022-11-29T09:22:04.689Z,24.91
2022-11-29T09:24:54.792Z,25.04
2022-11-29T09:27:37.135Z,25.05
2022-11-29T09:30:26.824Z,24.93
2022-11-29T09:33:09.177Z,24.96
2022-11-29T09:35:57.777Z,24.97
2022-11-29T09:38:41.181Z,24.98
2022-11-29T09:41:45.564Z,25.01
2022-11-29T09:44:46.287Z,24.75
2022-11-29T09:48:05.901Z,24.93
2022-11-29T09:51:00.241Z,24.79
2022-11-29T09:53:54.910Z,24.78
2022-11-29T09:56:46.214Z,24.75
2022-11-29T09:59:51.931Z,24.74
2022-11-29T10:02:46.466Z,24.76
2022-11-29T10:05:54.863Z,24.67
2022-11-29T10:08:48.208Z,24.70
2022-11-29T10:12:00.877Z,24.80
2022-11-29T10:14:53.271Z,24.89
2022-11-29T10:17:56.998Z,24.84
2022-11-29T10:20:49.253Z,24.76
2022-11-29T10:24:00.839Z,24.68
2022-11-29T10:26:44.570Z,24.65
2022-11-29T10:29:33.919Z,24.59
2022-11-29T10:32:22.628Z,24.54
2022-11-29T10:35:20.774Z,24.46
2022-11-29T10:38:31.663Z,24.37
2022-11-29T10:41:31.864Z,24.34
2022-11-29T10:44:14.214Z,24.27
2022-11-29T10:47:09.312Z,24.16
2022-11-29T10:49:53.184Z,24.09
2022-11-29T10:52:42.840Z,24.11
2022-11-29T10:55:26.208Z,24.03
2022-11-29T10:58:35.816Z,24.06
2022-11-29T11:01:29.849Z,23.97
2022-11-29T11:04:57.864Z,23.91
2022-11-29T11:07:46.982Z,23.80
2022-11-29T11:10:36.157Z,23.73
2022-11-29T11:13:34.846Z,23.59
2022-11-29T11:16:31.557Z,23.50
2022-11-29T11:19:41.857Z,23.46
2022-11-29T11:22:30.154Z,23.38
2022-11-29T11:25:43.861Z,23.38
2022-11-29T11:28:33.244Z,23.20
2022-11-29T11:31:21.817Z,23.13
2022-11-29T11:34:04.327Z,22.97
2022-11-29T11:36:52.873Z,22.85
2022-11-29T11:39:42.927Z,22.84
2022-11-29T11:42:45.910Z,22.67
2022-11-29T11:45:42.818Z,22.66
2022-11-29T11:48:25.736Z,22.55
2022-11-29T11:51:15.924Z,22.44
2022-11-29T11:54:05.169Z,22.37
2022-11-29T11:56:48.013Z,22.29
2022-11-29T11:59:37.184Z,22.17
2022-11-29T12:02:53.024Z,22.01
2022-11-29T12:05:35.175Z,21.85
2022-11-29T12:08:27.795Z,21.81
2022-11-29T12:11:20.893Z,21.76
2022-11-29T12:14:13.897Z,21.58
2022-11-29T12:17:05.405Z,21.53
2022-11-29T12:20:03.926Z,21.48
2022-11-29T12:23:01.239Z,21.41
2022-11-29T12:25:51.949Z,21.26
2022-11-29T12:28:39.706Z,21.26
2022-11-29T12:32:06.854Z,21.24
2022-11-29T12:35:11.848Z,21.08
2022-11-29T12:38:23.122Z,21.11
2022-11-29T12:41:53.632Z,21.15
2022-11-29T12:45:11.761Z,20.97
2022-11-29T12:48:34.186Z,20.86
2022-11-29T12:51:36.885Z,20.70
2022-11-29T12:54:39.977Z,20.60
2022-11-29T12:58:17.159Z,20.41
2022-11-29T13:01:13.235Z,20.36
2022-11-29T13:04:11.829Z,20.42
2022-11-29T13:07:28.824Z,20.43
2022-11-29T13:10:24.003Z,20.30
2022-11-29T13:13:35.120Z,20.22
2022-11-29T13:16:35.935Z,20.14
2022-11-29T13:19:49.430Z,20.13
2022-11-29T13:22:43.891Z,20.05
2022-11-29T13:25:43.181Z,20.00
2022-11-29T13:28:37.969Z,19.91
2022-11-29T13:31:29.939Z,20.08
2022-11-29T13:34:25.908Z,20.06
2022-11-29T13:37:37.180Z,20.02
2022-11-29T13:40:50.904Z,19.96
2022-11-29T13:43:57.119Z,19.95
2022-11-29T13:46:57.890Z,19.88
2022-11-29T13:50:03.432Z,19.82
2022-11-29T13:52:52.848Z,19.80
2022-11-29T13:55:41.842Z,19.68
2022-11-29T13:58:48.758Z,19.63
2022-11-29T14:01:37.897Z,19.49
2022-11-29T14:04:53.763Z,19.47
2022-11-29T14:07:48.984Z,19.33
2022-11-29T14:10:38.900Z,19.31
2022-11-29T14:13:23.114Z,19.25
2022-11-29T14:16:20.771Z,19.26
2022-11-29T14:19:26.660Z,19.38
2022-11-29T14:22:36.383Z,19.40
2022-11-29T14:25:52.457Z,19.32
2022-11-29T14:29:03.630Z,19.30
2022-11-29T14:32:05.160Z,19.20
2022-11-29T14:35:18.969Z,19.16
2022-11-29T14:38:48.717Z,19.01
2022-11-29T14:42:05.736Z,19.01
2022-11-29T14:45:13.615Z,18.90
2022-11-29T14:48:21.895Z,18.85
2022-11-29T14:51:30.785Z,18.79
2022-11-29T14:54:50.658Z,18.71
2022-11-29T14:58:08.321Z,18.74
2022-11-29T15:04:31.047Z,18.71
2022-11-29T15:10:46.078Z,18.62
2022-11-29T15:13:48.308Z,18.63
2022-11-29T15:20:26.484Z,18.66
2022-11-29T15:23:30.784Z,18.71
2022-11-29T15:26:26.491Z,18.65
2022-11-29T15:29:36.644Z,18.54
2022-11-29T15:32:52.768Z,18.49
2022-11-29T15:38:46.275Z,18.33
2022-11-29T15:41:45.026Z,18.29
2022-11-29T15:44:41.223Z,18.28
2022-11-29T15:47:42.298Z,18.24
2022-11-29T15:50:28.444Z,18.26
2022-11-29T15:53:28.764Z,18.10
2022-11-29T15:56:54.925Z,18.09
2022-11-29T16:00:11.070Z,18.08
2022-11-29T16:03:15.127Z,18.08
2022-11-29T16:06:30.278Z,18.10
2022-11-29T16:09:33.220Z,18.08
2022-11-29T16:12:27.215Z,17.95
2022-11-29T16:15:23.256Z,17.85
2022-11-29T16:18:30.369Z,18.06
2022-11-29T16:21:29.984Z,18.18
2022-11-29T16:24:31.444Z,18.14
2022-11-29T16:27:37.884Z,18.12
2022-11-29T16:30:43.059Z,18.04
2022-11-29T16:33:48.692Z,17.99
2022-11-29T16:40:05.130Z,17.80
2022-11-29T16:43:26.993Z,17.76
2022-11-29T16:46:52.149Z,17.80
2022-11-29T16:49:59.066Z,17.68
2022-11-29T16:52:56.179Z,17.69
2022-11-29T16:55:59.951Z,17.73
2022-11-29T16:59:25.096Z,17.60
2022-11-29T17:02:26.370Z,17.52
2022-11-29T17:05:18.337Z,17.53
2022-11-29T17:08:11.414Z,17.54
2022-11-29T17:11:23.307Z,17.51
2022-11-29T17:14:06.657Z,17.52
2022-11-29T17:16:52.308Z,17.50
2022-11-29T17:19:42.647Z,17.42
2022-11-29T17:22:29.197Z,17.33
2022-11-29T17:25:22.993Z,17.25
2022-11-29T17:28:13.227Z,17.51
2022-11-29T17:30:56.027Z,17.68
2022-11-29T17:33:47.207Z,17.61
2022-11-29T17:36:30.645Z,17.44
2022-11-29T17:39:23.081Z,17.31
2022-11-29T17:42:06.022Z,17.31
2022-11-29T17:44:57.076Z,17.30
2022-11-29T17:47:46.179Z,17.15
2022-11-29T17:50:30.823Z,17.07
2022-11-29T17:53:24.152Z,17.21
2022-11-29T17:56:18.599Z,17.25
2022-11-29T17:59:11.196Z,17.25
2022-11-29T18:02:01.199Z,17.12
2022-11-29T18:04:58.065Z,17.10
2022-11-29T18:08:06.146Z,17.08
2022-11-29T18:10:50.042Z,17.11
2022-11-29T18:13:44.058Z,17.08
2022-11-29T18:16:39.204Z,17.07
2022-11-29T18:19:24.160Z,17.16
2022-11-29T18:22:14.133Z,17.12
2022-11-29T18:25:09.985Z,17.04
2022-11-29T18:28:06.121Z,16.83
2022-11-29T18:30:49.213Z,16.84
2022-11-29T18:33:42.178Z,16.86
2022-11-29T18:36:40.782Z,16.80
2022-11-29T18:39:27.597Z,16.85
2022-11-29T18:42:18.202Z,16.75
2022-11-29T18:45:02.589Z,16.80
2022-11-29T18:47:53.179Z,16.78
2022-11-29T18:50:36.639Z,16.68
2022-11-29T18:53:26.412Z,16.59
2022-11-29T18:56:17.177Z,16.59
2022-11-29T18:59:08.190Z,16.70
2022-11-29T19:01:59.105Z,16.74
2022-11-29T19:04:45.975Z,16.67
2022-11-29T19:07:39.231Z,16.69
2022-11-29T19:10:23.641Z,16.63
2022-11-29T19:13:14.168Z,16.50
2022-11-29T19:16:04.461Z,16.55
2022-11-29T19:19:03.151Z,16.67
2022-11-29T19:21:46.722Z,16.68
2022-11-29T19:24:36.222Z,16.63
2022-11-29T19:27:18.613Z,16.73
2022-11-29T19:30:08.471Z,16.68
2022-11-29T19:32:52.753Z,16.48
2022-11-29T19:35:44.127Z,16.35
2022-11-29T19:38:28.570Z,16.43
2022-11-29T19:41:29.202Z,16.38
2022-11-29T19:44:14.192Z,16.51
2022-11-29T19:47:03.891Z,16.57
2022-11-29T19:49:46.954Z,16.54
2022-11-29T19:52:36.835Z,16.57
2022-11-29T19:55:19.107Z,16.46
2022-11-29T19:58:07.827Z,16.47
2022-11-29T20:00:50.104Z,16.47
2022-11-29T20:03:38.743Z,16.47
2022-11-29T20:06:21.090Z,16.37
2022-11-29T20:09:09.835Z,16.17
2022-11-29T20:11:58.814Z,16.13
2022-11-29T20:14:47.706Z,16.22
2022-11-29T20:17:36.743Z,16.31
2022-11-29T20:20:25.190Z,16.39
2022-11-29T20:23:06.921Z,16.38
2022-11-29T20:25:52.559Z,16.37
2022-11-29T20:28:41.833Z,16.16
2022-11-29T20:31:31.836Z,16.15
2022-11-29T20:34:15.080Z,16.02
2022-11-29T20:37:21.782Z,15.92
2022-11-29T20:40:38.733Z,15.88
2022-11-29T20:43:58.119Z,15.99
2022-11-29T20:46:43.894Z,15.97
2022-11-29T20:49:26.212Z,16.07
2022-11-29T20:52:19.816Z,16.04
2022-11-29T20:55:08.783Z,16.15
2022-11-29T20:57:57.830Z,16.21
2022-11-29T21:00:46.074Z,16.16
2022-11-29T21:03:28.930Z,16.01
2022-11-29T21:06:23.767Z,16.05
2022-11-29T21:09:06.914Z,16.09
2022-11-29T21:11:55.796Z,16.18
2022-11-29T21:14:38.337Z,16.21
2022-11-29T21:17:33.150Z,16.07
2022-11-29T21:20:23.101Z,15.85
2022-11-29T21:23:27.804Z,15.95
2022-11-29T21:26:26.309Z,15.94
2022-11-29T21:29:23.731Z,15.90
2022-11-29T21:32:19.024Z,15.82
2022-11-29T21:35:01.742Z,15.76
2022-11-29T21:37:44.059Z,15.59
2022-11-29T21:40:32.694Z,15.53
2022-11-29T21:43:15.019Z,15.71
2022-11-29T21:46:04.865Z,15.62
2022-11-29T21:48:47.226Z,15.74
2022-11-29T21:51:35.787Z,15.77
2022-11-29T21:54:18.092Z,15.68
2022-11-29T21:57:06.683Z,15.66
2022-11-29T21:59:49.105Z,15.63
2022-11-29T22:02:37.973Z,15.78
2022-11-29T22:05:26.685Z,15.87
2022-11-29T22:08:21.798Z,15.65
2022-11-29T22:11:12.066Z,15.65
2022-11-29T22:14:12.789Z,15.70
2022-11-29T22:16:57.614Z,15.77
2022-11-29T22:19:50.756Z,15.74
2022-11-29T22:22:32.939Z,15.78
2022-11-29T22:25:21.764Z,15.72
2022-11-29T22:28:03.911Z,15.80
2022-11-29T22:30:52.743Z,15.80
2022-11-29T22:33:42.121Z,15.77
2022-11-29T22:36:23.795Z,15.68
2022-11-29T22:39:14.113Z,15.71
2022-11-29T22:41:55.800Z,15.63
2022-11-29T22:44:44.280Z,15.60
2022-11-29T22:47:26.700Z,15.58
2022-11-29T22:50:18.021Z,15.57
2022-11-29T22:53:01.713Z,15.51
2022-11-29T22:55:50.019Z,15.49
2022-11-29T22:58:32.814Z,15.53
2022-11-29T23:01:22.876Z,15.68
2022-11-29T23:04:14.733Z,15.64
2022-11-29T23:07:09.703Z,15.70
2022-11-29T23:09:58.729Z,15.60
2022-11-29T23:12:47.658Z,15.58
2022-11-29T23:15:36.863Z,15.56
2022-11-29T23:18:19.066Z,15.59
2022-11-29T23:21:14.795Z,15.50
2022-11-29T23:24:03.765Z,15.44
2022-11-29T23:26:48.365Z,15.50
2022-11-29T23:29:36.639Z,15.40
2022-11-29T23:32:25.084Z,15.24
2022-11-29T23:35:06.736Z,15.17
2022-11-29T23:37:55.089Z,15.25
2022-11-29T23:40:36.738Z,15.22
2022-11-29T23:43:25.716Z,15.16
2022-11-29T23:46:19.830Z,15.29
2022-11-29T23:49:01.994Z,15.36
2022-11-29T23:51:50.719Z,15.24
2022-11-29T23:54:39.637Z,15.32
2022-11-29T23:57:22.078Z,15.22
